createdAt,value
2023-03-26T00:02:06.556Z,97770.41
2023-03-26T00:04:34.915Z,97773.97
2023-03-26T00:07:03.431Z,97772.31
2023-03-26T00:09:33.049Z,97783.41
2023-03-26T00:12:01.411Z,97774.94
2023-03-26T00:14:30.421Z,97756.13
2023-03-26T00:16:58.906Z,97768.44
2023-03-26T00:19:27.943Z,97779.91
2023-03-26T00:21:57.594Z,97775.94
2023-03-26T00:24:29.483Z,97776.75
2023-03-26T00:26:59.734Z,97785.50
2023-03-26T00:29:28.754Z,97775.00
2023-03-26T00:31:57.079Z,97777.81
2023-03-26T00:34:26.764Z,97778.56
2023-03-26T00:36:55.083Z,97761.63
2023-03-26T00:39:24.462Z,97773.59
2023-03-26T00:41:54.688Z,97772.22
2023-03-26T00:44:24.617Z,97766.25
2023-03-26T00:46:53.522Z,97762.75
2023-03-26T00:49:22.012Z,97755.13
2023-03-26T00:51:50.405Z,97754.38
2023-03-26T00:54:18.876Z,97754.50
2023-03-26T00:56:47.380Z,97745.03
2023-03-26T00:59:16.947Z,97749.38
2023-03-26T01:01:47.112Z,97745.91
2023-03-26T01:04:32.027Z,97739.06
2023-03-26T01:07:04.249Z,97734.13
2023-03-26T01:09:37.077Z,97724.75
2023-03-26T01:12:10.777Z,97717.16
2023-03-26T01:14:39.866Z,97712.22
2023-03-26T01:17:12.433Z,97719.16
2023-03-26T01:19:49.777Z,97708.91
2023-03-26T01:22:20.841Z,97710.78
2023-03-26T01:24:56.267Z,97709.13
2023-03-26T01:27:33.490Z,97693.94
2023-03-26T01:30:11.072Z,97694.69
2023-03-26T01:32:55.652Z,97693.88
2023-03-26T01:35:39.396Z,97685.34
2023-03-26T01:38:24.432Z,97686.06
2023-03-26T01:41:00.971Z,97680.34
2023-03-26T01:43:37.939Z,97670.16
2023-03-26T01:46:10.796Z,97677.63
2023-03-26T01:48:42.610Z,97670.53
2023-03-26T01:51:13.471Z,97663.59
2023-03-26T01:53:45.511Z,97659.28
2023-03-26T01:56:22.714Z,97654.16
2023-03-26T01:59:08.273Z,97644.56
2023-03-26T02:01:46.126Z,97642.00
2023-03-26T02:04:23.669Z,97640.81
2023-03-26T02:06:58.730Z,97642.47
2023-03-26T02:09:30.886Z,97634.91
2023-03-26T02:12:03.640Z,97628.03
2023-03-26T02:14:32.504Z,97616.94
2023-03-26T02:17:01.108Z,97615.13
2023-03-26T02:19:29.916Z,97598.72
2023-03-26T02:21:59.918Z,97592.91
2023-03-26T02:24:29.762Z,97587.78
2023-03-26T02:27:02.212Z,97589.75
2023-03-26T02:29:30.815Z,97595.47
2023-03-26T02:31:59.528Z,97588.78
2023-03-26T02:34:27.851Z,97579.56
2023-03-26T02:36:57.125Z,97577.84
2023-03-26T02:39:26.159Z,97582.13
2023-03-26T02:42:00.560Z,97585.44
2023-03-26T02:44:30.264Z,97587.94
2023-03-26T02:47:01.421Z,97585.59
2023-03-26T02:49:48.666Z,97573.53
2023-03-26T02:52:43.347Z,97581.13
2023-03-26T02:55:12.081Z,97572.69
2023-03-26T02:57:43.896Z,97573.44
2023-03-26T03:00:22.814Z,97576.00
2023-03-26T03:02:52.771Z,97563.94
2023-03-26T03:05:34.177Z,97563.84
2023-03-26T03:08:19.667Z,97555.16
2023-03-26T03:11:17.265Z,97551.69
2023-03-26T03:13:50.192Z,97543.25
2023-03-26T03:16:27.564Z,97534.63
2023-03-26T03:19:11.777Z,97537.09
2023-03-26T03:21:43.070Z,97529.34
2023-03-26T03:24:13.942Z,97528.53
2023-03-26T03:26:47.470Z,97516.66
2023-03-26T03:29:41.435Z,97514.91
2023-03-26T03:32:29.703Z,97517.41
2023-03-26T03:35:02.121Z,97507.97
2023-03-26T03:37:31.012Z,97503.06
2023-03-26T03:40:00.701Z,97490.97
2023-03-26T03:42:32.597Z,97489.09
2023-03-26T03:45:06.305Z,97481.28
2023-03-26T03:47:51.209Z,97482.94
2023-03-26T03:50:26.896Z,97481.97
2023-03-26T03:53:15.768Z,97472.47
2023-03-26T03:55:52.914Z,97470.56
2023-03-26T03:58:25.106Z,97473.19
2023-03-26T04:01:00.788Z,97476.09
2023-03-26T04:03:53.567Z,97468.41
2023-03-26T04:06:25.496Z,97471.03
2023-03-26T04:08:55.526Z,97463.25
2023-03-26T04:11:27.342Z,97458.13
2023-03-26T04:14:12.530Z,97454.63
2023-03-26T04:17:17.689Z,97448.69
2023-03-26T04:19:48.123Z,97448.69
2023-03-26T04:22:19.314Z,97438.41
2023-03-26T04:24:58.012Z,97435.91
2023-03-26T04:27:38.425Z,97427.31
2023-03-26T04:30:29.029Z,97418.69
2023-03-26T04:33:10.124Z,97404.13
2023-03-26T04:35:41.702Z,97415.31
2023-03-26T04:38:12.707Z,97410.06
2023-03-26T04:40:47.217Z,97408.41
2023-03-26T04:43:17.959Z,97396.66
2023-03-26T04:45:48.923Z,97388.88
2023-03-26T04:48:21.836Z,97380.34
2023-03-26T04:50:51.244Z,97375.03
2023-03-26T04:53:22.705Z,97375.78
2023-03-26T04:56:29.115Z,97363.84
2023-03-26T04:59:30.148Z,97345.97
2023-03-26T05:02:00.280Z,97354.25
2023-03-26T05:04:34.111Z,97362.94
2023-03-26T05:07:02.971Z,97367.09
2023-03-26T05:09:45.573Z,97364.69
2023-03-26T05:12:17.763Z,97364.94
2023-03-26T05:15:00.890Z,97371.66
2023-03-26T05:18:08.818Z,97372.63
2023-03-26T05:20:44.503Z,97364.19
2023-03-26T05:23:13.336Z,97358.06
2023-03-26T05:25:44.701Z,97358.81
2023-03-26T05:28:24.733Z,97353.75
2023-03-26T05:30:58.044Z,97341.50
2023-03-26T05:33:28.912Z,97339.75
2023-03-26T05:36:13.376Z,97327.50
2023-03-26T05:38:47.297Z,97312.56
2023-03-26T05:41:20.688Z,97305.53
2023-03-26T05:43:51.247Z,97310.84
2023-03-26T05:46:25.032Z,97307.34
2023-03-26T05:48:53.952Z,97312.00
2023-03-26T05:51:24.482Z,97312.25
2023-03-26T05:54:02.709Z,97308.19
2023-03-26T05:56:49.927Z,97304.72
2023-03-26T05:59:53.950Z,97295.44
2023-03-26T06:02:42.704Z,97289.97
2023-03-26T06:05:48.762Z,97293.38
2023-03-26T06:08:22.160Z,97290.31
2023-03-26T06:10:58.818Z,97280.53
2023-03-26T06:13:27.418Z,97262.63
2023-03-26T06:15:56.088Z,97249.19
2023-03-26T06:18:36.403Z,97251.00
2023-03-26T06:21:24.585Z,97242.41
2023-03-26T06:24:16.391Z,97228.47
2023-03-26T06:26:52.502Z,97224.44
2023-03-26T06:29:35.935Z,97207.94
2023-03-26T06:32:20.479Z,97202.09
2023-03-26T06:35:11.744Z,97201.91
2023-03-26T06:37:40.557Z,97205.56
2023-03-26T06:40:13.612Z,97195.09
2023-03-26T06:43:06.712Z,97200.44
2023-03-26T06:45:57.042Z,97196.41
2023-03-26T06:48:45.363Z,97200.59
2023-03-26T06:51:21.131Z,97194.56
2023-03-26T06:54:07.876Z,97196.56
2023-03-26T06:56:51.770Z,97189.03
2023-03-26T06:59:37.687Z,97185.00
2023-03-26T07:02:24.729Z,97190.13
2023-03-26T07:05:11.753Z,97182.09
2023-03-26T07:07:58.923Z,97182.22
2023-03-26T07:10:46.485Z,97176.44
2023-03-26T07:13:33.647Z,97172.03
2023-03-26T07:16:20.769Z,97163.25
2023-03-26T07:19:12.214Z,97164.06
2023-03-26T07:21:43.526Z,97160.56
2023-03-26T07:24:26.319Z,97153.63
2023-03-26T07:27:21.720Z,97153.63
2023-03-26T07:29:58.785Z,97137.28
2023-03-26T07:32:54.892Z,97133.09
2023-03-26T07:35:50.888Z,97119.78
2023-03-26T07:38:44.974Z,97115.28
2023-03-26T07:41:42.589Z,97113.75
2023-03-26T07:44:54.050Z,97122.44
2023-03-26T07:47:57.209Z,97129.69
2023-03-26T07:50:37.365Z,97123.09
2023-03-26T07:53:11.445Z,97116.19
2023-03-26T07:56:08.531Z,97105.03
2023-03-26T07:59:11.190Z,97103.19
2023-03-26T08:02:41.168Z,97098.78
2023-03-26T08:05:51.863Z,97102.56
2023-03-26T08:08:49.639Z,97102.44
2023-03-26T08:11:41.987Z,97085.56
2023-03-26T08:14:30.730Z,97089.06
2023-03-26T08:17:07.975Z,97091.34
2023-03-26T08:19:52.450Z,97090.53
2023-03-26T08:22:27.385Z,97082.72
2023-03-26T08:25:19.569Z,97085.22
2023-03-26T08:28:02.357Z,97070.50
2023-03-26T08:30:31.072Z,97064.47
2023-03-26T08:33:04.275Z,97053.28
2023-03-26T08:35:35.181Z,97056.22
2023-03-26T08:38:03.755Z,97059.34
2023-03-26T08:41:05.924Z,97059.41
2023-03-26T08:44:17.351Z,97041.06
2023-03-26T08:47:25.023Z,97045.84
2023-03-26T08:50:22.100Z,97042.53
2023-03-26T08:53:24.826Z,97041.91
2023-03-26T08:56:02.688Z,97038.03
2023-03-26T08:59:28.517Z,97039.63
2023-03-26T09:02:24.574Z,97042.66
2023-03-26T09:05:47.137Z,97033.25
2023-03-26T09:08:54.203Z,97028.41
2023-03-26T09:12:16.356Z,97028.06
2023-03-26T09:15:28.806Z,97043.19
2023-03-26T09:18:43.800Z,97044.75
2023-03-26T09:21:43.288Z,97036.13
2023-03-26T09:25:00.196Z,97044.47
2023-03-26T09:27:39.783Z,97036.94
2023-03-26T09:30:59.428Z,97015.81
2023-03-26T09:33:49.770Z,97049.66
2023-03-26T09:36:50.457Z,97037.00
2023-03-26T09:39:38.542Z,97031.78
2023-03-26T09:42:18.418Z,97032.13
2023-03-26T09:45:25.784Z,97030.09
2023-03-26T09:48:54.059Z,97026.84
2023-03-26T09:51:50.304Z,97027.63
2023-03-26T09:54:55.946Z,97019.59
2023-03-26T09:57:49.222Z,97027.72
2023-03-26T10:00:28.488Z,97027.84
2023-03-26T10:03:21.112Z,97020.69
2023-03-26T10:06:00.598Z,97017.31
2023-03-26T10:08:51.204Z,97018.56
2023-03-26T10:11:33.141Z,97004.03
2023-03-26T10:14:12.216Z,97003.22
2023-03-26T10:16:56.295Z,97007.41
2023-03-26T10:19:49.701Z,97009.78
2023-03-26T10:22:37.637Z,97011.03
2023-03-26T10:26:03.227Z,97001.84
2023-03-26T10:29:04.660Z,96999.13
2023-03-26T10:31:46.876Z,97001.19
2023-03-26T10:34:45.650Z,96992.72
2023-03-26T10:37:23.348Z,96990.75
2023-03-26T10:40:13.281Z,96988.44
2023-03-26T10:43:20.756Z,96981.97
2023-03-26T10:46:20.485Z,96987.47
2023-03-26T10:49:28.913Z,96984.72
2023-03-26T10:51:59.880Z,96986.88
2023-03-26T10:54:44.970Z,96998.88
2023-03-26T10:57:27.600Z,96990.31
2023-03-26T10:59:59.182Z,97017.97
2023-03-26T11:02:38.943Z,97002.84
2023-03-26T11:05:34.095Z,96993.44
2023-03-26T11:08:07.626Z,97003.06
2023-03-26T11:10:49.406Z,97006.13
2023-03-26T11:13:28.265Z,96997.47
2023-03-26T11:16:04.019Z,97001.66
2023-03-26T11:18:41.798Z,96976.78
2023-03-26T11:21:19.282Z,96981.44
2023-03-26T11:24:04.879Z,96991.31
2023-03-26T11:26:49.068Z,96977.97
2023-03-26T11:29:41.933Z,96984.44
2023-03-26T11:32:14.197Z,96970.50
2023-03-26T11:34:58.324Z,96960.69
2023-03-26T11:37:34.571Z,96962.47
2023-03-26T11:40:11.719Z,96963.03
2023-03-26T11:42:40.860Z,96966.56
2023-03-26T11:45:18.589Z,96953.63
2023-03-26T11:47:52.023Z,96951.84
2023-03-26T11:50:26.409Z,96945.13
2023-03-26T11:52:55.541Z,96948.19
2023-03-26T11:55:24.980Z,96952.91
2023-03-26T11:57:57.181Z,96953.72
2023-03-26T12:00:27.408Z,96955.72
2023-03-26T12:02:59.739Z,96966.41
2023-03-26T12:05:36.685Z,96941.88
2023-03-26T12:08:21.679Z,96952.91
2023-03-26T12:11:05.587Z,96980.06
2023-03-26T12:13:41.787Z,96984.06
2023-03-26T12:16:14.522Z,97001.09
2023-03-26T12:18:44.241Z,97000.59
2023-03-26T12:21:15.969Z,96987.63
2023-03-26T12:23:56.141Z,96981.25
2023-03-26T12:26:36.241Z,96979.72
2023-03-26T12:29:13.478Z,96982.09
2023-03-26T12:31:52.536Z,96970.81
2023-03-26T12:34:23.493Z,96970.13
2023-03-26T12:37:00.063Z,96957.06
2023-03-26T12:40:07.500Z,96960.81
2023-03-26T12:44:49.495Z,96956.53
2023-03-26T12:45:23.932Z,96960.66
2023-03-26T12:48:01.727Z,96964.44
2023-03-26T12:50:58.070Z,96959.28
2023-03-26T12:53:50.257Z,96953.53
2023-03-26T12:56:36.892Z,96946.03
2023-03-26T12:59:36.456Z,96945.38
2023-03-26T13:02:43.931Z,96939.34
2023-03-26T13:05:32.096Z,96926.19
2023-03-26T13:08:16.231Z,96915.25
2023-03-26T13:10:52.310Z,96931.53
2023-03-26T13:13:48.722Z,96909.22
2023-03-26T13:16:28.360Z,96910.00
2023-03-26T13:19:01.329Z,96901.50
2023-03-26T13:21:42.957Z,96899.84
2023-03-26T13:24:26.446Z,96902.00
2023-03-26T13:27:09.830Z,96907.13
2023-03-26T13:29:49.679Z,96901.94
2023-03-26T13:32:31.469Z,96894.50
2023-03-26T13:35:15.938Z,96898.75
2023-03-26T13:37:50.801Z,96896.06
2023-03-26T13:40:25.930Z,96888.69
2023-03-26T13:43:19.186Z,96883.63
2023-03-26T13:46:01.475Z,96880.38
2023-03-26T13:48:35.685Z,96881.34
2023-03-26T13:51:12.581Z,96883.06
2023-03-26T13:53:47.993Z,96871.88
2023-03-26T13:56:20.851Z,96867.50
2023-03-26T13:58:54.331Z,96867.66
2023-03-26T14:01:33.880Z,96871.47
2023-03-26T14:04:08.379Z,96871.84
2023-03-26T14:06:46.697Z,96860.66
2023-03-26T14:09:22.776Z,96860.38
2023-03-26T14:12:21.196Z,96860.06
2023-03-26T14:14:56.398Z,96860.31
2023-03-26T14:17:30.134Z,96855.38
2023-03-26T14:20:27.936Z,96854.69
2023-03-26T14:23:12.755Z,96850.47
2023-03-26T14:26:02.803Z,96858.50
2023-03-26T14:29:25.549Z,96860.13
2023-03-26T14:32:10.821Z,96864.34
2023-03-26T14:34:52.428Z,96866.00
2023-03-26T14:38:00.842Z,96907.50
2023-03-26T14:40:45.770Z,96891.66
2023-03-26T14:44:11.432Z,96930.19
2023-03-26T14:47:02.648Z,96921.53
2023-03-26T14:50:08.327Z,96950.75
2023-03-26T14:52:49.089Z,96962.19
2023-03-26T14:55:52.055Z,96967.78
2023-03-26T14:59:08.892Z,96938.53
2023-03-26T15:02:54.358Z,96920.63
2023-03-26T15:11:24.231Z,96925.13
2023-03-26T15:14:38.103Z,96946.34
2023-03-26T15:17:54.589Z,96941.22
2023-03-26T15:20:36.356Z,96958.72
2023-03-26T15:23:50.863Z,96961.19
2023-03-26T15:27:27.478Z,96966.53
2023-03-26T15:30:45.949Z,96982.59
2023-03-26T15:33:51.115Z,96964.69
2023-03-26T15:37:01.711Z,96982.09
2023-03-26T15:39:59.691Z,96967.66
2023-03-26T15:42:44.831Z,96969.41
2023-03-26T15:45:31.984Z,96970.81
2023-03-26T15:48:54.714Z,96973.22
2023-03-26T15:51:47.288Z,96962.59
2023-03-26T15:54:27.367Z,96968.69
2023-03-26T15:57:17.723Z,96959.19
2023-03-26T16:00:00.714Z,96939.16
2023-03-26T16:02:41.846Z,96968.22
2023-03-26T16:05:35.096Z,96965.69
2023-03-26T16:08:16.875Z,96952.34
2023-03-26T16:10:52.548Z,96952.16
2023-03-26T16:13:40.842Z,96940.88
2023-03-26T16:16:50.478Z,96934.69
2023-03-26T16:19:41.060Z,96945.06
2023-03-26T16:22:17.392Z,96952.59
2023-03-26T16:25:27.135Z,96952.78
2023-03-26T16:28:30.815Z,96965.91
2023-03-26T16:31:38.343Z,96971.38
2023-03-26T16:34:31.405Z,96978.69
2023-03-26T16:37:00.974Z,96987.22
2023-03-26T16:39:42.200Z,96994.22
2023-03-26T16:42:39.107Z,97017.06
2023-03-26T16:45:19.141Z,97015.44
2023-03-26T16:47:58.488Z,97015.81
2023-03-26T16:50:41.333Z,97018.13
2023-03-26T16:53:24.977Z,97018.59
2023-03-26T16:55:59.815Z,97012.19
2023-03-26T16:58:36.729Z,97024.66
2023-03-26T17:01:10.913Z,97028.59
2023-03-26T17:03:53.208Z,97020.00
2023-03-26T17:07:01.767Z,97054.22
2023-03-26T17:09:41.431Z,97027.97
2023-03-26T17:12:20.302Z,97023.84
2023-03-26T17:15:13.376Z,97032.19
2023-03-26T17:18:01.769Z,97033.13
2023-03-26T17:20:37.623Z,97030.91
2023-03-26T17:23:41.246Z,97027.44
2023-03-26T17:26:24.242Z,97027.63
2023-03-26T17:29:21.786Z,97023.31
2023-03-26T17:32:01.072Z,97025.06
2023-03-26T17:34:46.995Z,97027.44
2023-03-26T17:37:45.824Z,97020.63
2023-03-26T17:40:59.753Z,97016.69
2023-03-26T17:43:44.085Z,97029.25
2023-03-26T17:46:26.831Z,97036.69
2023-03-26T17:49:02.593Z,97037.50
2023-03-26T17:51:47.886Z,97036.69
2023-03-26T17:54:21.377Z,97042.09
2023-03-26T17:56:52.376Z,97040.63
2023-03-26T17:59:24.177Z,97046.13
2023-03-26T18:01:56.923Z,97041.81
2023-03-26T18:04:33.932Z,97043.56
2023-03-26T18:07:53.186Z,97051.63
2023-03-26T18:10:41.878Z,97040.63
2023-03-26T18:13:56.117Z,97041.34
2023-03-26T18:16:34.644Z,97049.91
2023-03-26T18:19:06.796Z,97034.56
2023-03-26T18:21:38.715Z,97032.09
2023-03-26T18:24:09.451Z,97037.53
2023-03-26T18:26:41.498Z,97028.13
2023-03-26T18:29:23.743Z,97028.34
2023-03-26T18:31:58.007Z,97037.88
2023-03-26T18:34:29.128Z,97044.47
2023-03-26T18:37:21.083Z,97047.41
2023-03-26T18:40:02.238Z,97042.81
2023-03-26T18:42:33.730Z,97034.19
2023-03-26T18:45:09.950Z,97044.47
2023-03-26T18:47:38.488Z,97040.09
2023-03-26T18:50:14.343Z,97033.66
2023-03-26T18:52:45.766Z,97036.50
2023-03-26T18:55:15.717Z,97034.09
2023-03-26T18:57:44.846Z,97025.75
2023-03-26T19:00:21.251Z,97027.56
2023-03-26T19:02:52.879Z,97036.38
2023-03-26T19:05:21.971Z,97037.28
2023-03-26T19:07:52.384Z,97031.44
2023-03-26T19:10:22.153Z,97036.81
2023-03-26T19:12:58.277Z,97041.56
2023-03-26T19:15:29.777Z,97028.84
2023-03-26T19:18:07.071Z,97030.59
2023-03-26T19:20:42.264Z,97034.44
2023-03-26T19:23:15.329Z,97024.53
2023-03-26T19:25:48.662Z,97027.91
2023-03-26T19:28:21.897Z,97029.75
2023-03-26T19:30:57.534Z,97040.03
2023-03-26T19:33:36.433Z,97025.34
2023-03-26T19:36:18.038Z,97035.06
2023-03-26T19:38:52.699Z,97027.53
2023-03-26T19:41:24.985Z,97025.25
2023-03-26T19:43:57.902Z,97015.81
2023-03-26T19:46:28.398Z,97019.28
2023-03-26T19:48:58.868Z,97021.84
2023-03-26T19:51:34.592Z,97015.03
2023-03-26T19:54:14.642Z,97014.41
2023-03-26T19:56:43.431Z,97008.72
2023-03-26T19:59:12.103Z,97008.72
2023-03-26T20:01:40.852Z,97017.06
2023-03-26T20:04:13.576Z,97019.63
2023-03-26T20:06:44.117Z,97025.13
2023-03-26T20:09:14.474Z,97014.88
2023-03-26T20:11:43.242Z,97014.13
2023-03-26T20:14:17.003Z,97005.75
2023-03-26T20:16:46.249Z,97013.72
2023-03-26T20:19:15.579Z,97004.47
2023-03-26T20:21:45.799Z,97003.63
2023-03-26T20:24:18.389Z,97011.75
2023-03-26T20:26:47.847Z,97014.25
2023-03-26T20:29:16.981Z,97004.88
2023-03-26T20:31:45.939Z,97002.31
2023-03-26T20:34:19.000Z,97001.59
2023-03-26T20:36:54.167Z,97002.75
2023-03-26T20:53:21.425Z,96996.25
2023-03-26T20:55:51.453Z,96984.16
2023-03-26T20:58:31.912Z,96989.22
2023-03-26T21:01:06.546Z,96994.59
2023-03-26T21:07:11.089Z,97000.56
2023-03-26T21:09:47.170Z,97004.78
2023-03-26T21:12:31.980Z,97003.69
2023-03-26T21:15:09.957Z,97008.00
2023-03-26T21:17:45.739Z,97014.13
2023-03-26T21:20:19.501Z,97009.00
2023-03-26T21:23:00.301Z,97012.47
2023-03-26T21:25:39.408Z,97021.97
2023-03-26T21:28:35.834Z,97022.72
2023-03-26T21:31:18.732Z,97024.53
2023-03-26T21:33:52.121Z,97016.69
2023-03-26T21:36:23.561Z,97012.63
2023-03-26T21:38:57.779Z,97018.66
2023-03-26T21:41:41.415Z,97025.53
2023-03-26T21:44:12.059Z,97022.31
2023-03-26T21:46:45.989Z,97018.94
2023-03-26T21:49:19.658Z,97016.75
2023-03-26T21:51:51.011Z,97021.28
2023-03-26T21:54:31.047Z,97022.34
2023-03-26T21:57:25.701Z,97014.81
2023-03-26T22:00:14.506Z,97022.03
2023-03-26T22:03:00.879Z,97021.22
2023-03-26T22:05:38.352Z,97020.69
2023-03-26T22:08:10.747Z,97024.19
2023-03-26T22:10:43.728Z,97030.28
2023-03-26T22:13:14.142Z,97037.19
2023-03-26T22:15:46.374Z,97037.44
2023-03-26T22:18:21.662Z,97040.25
2023-03-26T22:20:53.161Z,97036.03
2023-03-26T22:23:23.665Z,97043.97
2023-03-26T22:25:57.858Z,97037.69
2023-03-26T22:28:28.671Z,97042.97
2023-03-26T22:30:59.539Z,97044.78
2023-03-26T22:33:30.697Z,97042.72
2023-03-26T22:36:01.350Z,97037.69
2023-03-26T22:38:31.971Z,97046.44
2023-03-26T22:41:08.192Z,97050.75
2023-03-26T22:43:38.830Z,97056.59
2023-03-26T22:46:09.812Z,97057.75
2023-03-26T22:48:49.032Z,97055.69
2023-03-26T22:51:22.836Z,97054.88
2023-03-26T22:53:53.271Z,97062.72
2023-03-26T22:56:26.275Z,97057.34
2023-03-26T22:58:56.866Z,97060.63
2023-03-26T23:01:27.873Z,97066.63
2023-03-26T23:03:58.423Z,97070.97
2023-03-26T23:06:29.143Z,97064.06
2023-03-26T23:08:59.720Z,97079.47
2023-03-26T23:11:33.466Z,97077.31
2023-03-26T23:14:04.648Z,97088.97
2023-03-26T23:16:35.093Z,97080.28
2023-03-26T23:19:05.939Z,97097.75
2023-03-26T23:21:36.837Z,97098.72
2023-03-26T23:24:08.615Z,97095.19
2023-03-26T23:26:50.662Z,97103.72
2023-03-26T23:29:21.718Z,97108.38
2023-03-26T23:31:53.089Z,97117.38
2023-03-26T23:34:23.598Z,97123.31
2023-03-26T23:36:54.419Z,97121.84
2023-03-26T23:39:26.867Z,97115.88
2023-03-26T23:41:59.980Z,97124.81
2023-03-26T23:44:30.547Z,97128.44
2023-03-26T23:47:00.929Z,97140.31
2023-03-26T23:49:32.250Z,97138.81
2023-03-26T23:52:02.699Z,97140.50
2023-03-26T23:54:35.276Z,97148.25
2023-03-26T23:57:09.003Z,97147.41
2023-03-26T23:59:41.750Z,97137.84
